Nehalem, Oregon
Current Conditions -  °F | °C
As of 8:35 PM on Thursday 20 Nov 2014 (Local Time) from KTMK Reporting Station
Haze Haze  
Wind Chill: 45°   Ceiling: 4600
Heat Index: 45°   Visibility: 0.75mi
Dew Point: 45°   Wind: 3mph
Humidity: 100%   Direction: 140°SE
Pressure: 29.96"   Gusts: NA
Location:  45.72°N, 123.89°W
Report Text: KTMK 210435Z AUTO 14003KT 3/4SM BR SCT031 OVC046 07/07 A2996 RMK AO2
Loading
Personal Weather Stations






























Interactive Weather Map New forecast layout! Learn more

10-Day Weather Forecast

Advertisements
Track Severe Weather on mobile